Time;durP1;ratioP1;P1;durP2;ratioP2;P2;SDS_P1;SDS_P2;PMS_P1;PMS_P2;Temp;Humidity;BMP_temperature;BMP_pressure;BME280_temperature;BME280_humidity;BME280_pressure;Samples;Min_cycle;Max_cycle;Signal;HPM_P1;HPM_P2
2023/04/11 00:03:21;;;;;;;2.97;1.80;;;;;;;8.45;79.77;99600.66;10586465;28;20039;-81
2023/04/11 00:08:24;;;;;;;2.63;1.50;;;;;;;8.39;79.49;99623.44;10573278;28;20077;-80
2023/04/11 00:13:28;;;;;;;2.42;1.80;;;;;;;8.75;79.22;99621.34;10567265;28;20044;-80
2023/04/11 00:18:34;;;;;;;2.63;1.50;;;;;;;8.65;79.10;99639.16;10568739;28;20104;-80
2023/04/11 00:23:37;;;;;;;4.60;1.45;;;;;;;8.67;78.53;99628.34;10578649;28;20085;-81
2023/04/11 00:28:41;;;;;;;4.57;1.60;;;;;;;8.40;78.88;99643.88;10586346;28;20044;-80
2023/04/11 00:33:44;;;;;;;2.42;1.20;;;;;;;8.47;77.82;99621.97;10577630;28;20445;-80
2023/04/11 00:38:47;;;;;;;1.40;1.15;;;;;;;8.26;77.62;99621.94;10568654;28;20050;-80
2023/04/11 00:43:53;;;;;;;3.17;1.30;;;;;;;8.20;77.19;99622.41;10573682;28;20096;-79
2023/04/11 00:48:56;;;;;;;3.20;1.70;;;;;;;8.27;76.57;99607.56;10564495;28;20035;-78
2023/04/11 00:54:01;;;;;;;3.40;1.48;;;;;;;8.18;76.40;99619.88;10588765;28;20046;-81
2023/04/11 00:59:06;;;;;;;1.85;1.08;;;;;;;8.07;76.21;99622.59;10563086;28;20480;-80
2023/04/11 01:04:09;;;;;;;2.33;1.10;;;;;;;8.45;75.32;99622.09;10565658;28;20040;-81
2023/04/11 01:09:12;;;;;;;2.75;0.70;;;;;;;8.17;75.41;99619.03;10584450;28;20485;-80
2023/04/11 01:14:19;;;;;;;2.10;0.85;;;;;;;8.26;75.50;99614.75;10575228;28;20074;-80
2023/04/11 01:19:24;;;;;;;2.97;1.55;;;;;;;8.44;74.64;99617.69;10572153;28;20498;-80
2023/04/11 01:24:29;;;;;;;2.08;0.90;;;;;;;8.11;75.06;99634.72;10566927;28;20406;-80
2023/04/11 01:29:32;;;;;;;2.15;0.90;;;;;;;8.29;74.55;99610.97;10574196;28;20582;-79
2023/04/11 01:34:37;;;;;;;3.85;1.00;;;;;;;8.22;75.43;99602.59;10574218;28;20044;-80
2023/04/11 01:39:41;;;;;;;3.17;0.95;;;;;;;8.17;75.13;99600.31;10573249;28;20135;-80
2023/04/11 01:44:44;;;;;;;3.78;1.05;;;;;;;7.82;75.36;99600.56;10585420;28;20044;-80
2023/04/11 01:49:47;;;;;;;2.58;1.05;;;;;;;7.94;74.99;99582.63;10573192;28;20479;-79
2023/04/11 01:54:51;;;;;;;4.95;1.42;;;;;;;7.92;74.87;99568.53;10574325;28;20036;-80
2023/04/11 01:59:54;;;;;;;17.95;1.58;;;;;;;8.07;73.59;99566.44;10582490;28;20039;-80
2023/04/11 02:04:57;;;;;;;4.90;1.42;;;;;;;8.05;73.61;99574.56;10571499;28;20039;-79
2023/04/11 02:10:01;;;;;;;2.25;1.00;;;;;;;8.05;74.00;99579.91;10569353;28;20042;-78
2023/04/11 02:15:05;;;;;;;2.25;0.70;;;;;;;8.07;73.31;99585.16;10570260;28;20051;-79
2023/04/11 02:20:09;;;;;;;2.42;1.30;;;;;;;7.76;74.57;99568.09;10562882;28;20104;-78
2023/04/11 02:25:14;;;;;;;2.88;1.30;;;;;;;8.05;73.94;99587.09;10569403;28;20043;-78
2023/04/11 02:30:16;;;;;;;3.53;1.58;;;;;;;8.23;72.78;99576.69;10569897;28;20039;-78
2023/04/11 02:35:19;;;;;;;5.18;1.70;;;;;;;8.21;72.74;99584.00;10569676;28;20485;-79
2023/04/11 02:40:24;;;;;;;5.22;1.98;;;;;;;8.29;72.84;99560.97;10569665;28;20096;-78
2023/04/11 02:45:26;;;;;;;5.30;2.50;;;;;;;8.19;73.41;99560.03;10567514;28;20062;-78
2023/04/11 02:50:29;;;;;;;6.45;2.35;;;;;;;8.35;73.39;99572.97;10567650;28;20464;-77
2023/04/11 02:55:34;;;;;;;8.88;2.40;;;;;;;7.86;75.38;99577.06;10558370;28;20073;-77
2023/04/11 03:00:37;;;;;;;4.63;1.80;;;;;;;7.95;74.87;99577.19;10584384;28;20051;-76
2023/04/11 03:05:43;;;;;;;6.60;1.88;;;;;;;8.21;74.76;99570.63;10562325;28;20047;-77
2023/04/11 03:10:49;;;;;;;11.52;3.05;;;;;;;8.25;74.01;99572.91;10562260;28;20050;-77
2023/04/11 03:15:53;;;;;;;6.43;2.60;;;;;;;8.25;73.37;99569.38;10559664;28;20036;-78
2023/04/11 03:21:00;;;;;;;6.35;2.63;;;;;;;8.35;71.84;99572.97;10565507;28;20645;-77
2023/04/11 03:26:06;;;;;;;8.65;2.72;;;;;;;8.15;72.21;99572.00;10565011;28;20104;-76
2023/04/11 03:31:10;;;;;;;13.40;5.75;;;;;;;8.05;72.54;99590.63;10582378;28;20114;-78
2023/04/11 03:36:15;;;;;;;11.18;3.38;;;;;;;7.97;73.20;99579.72;10556910;28;20413;-77
2023/04/11 03:41:20;;;;;;;8.82;3.50;;;;;;;7.76;72.80;99592.16;10568522;28;20044;-78
2023/04/11 03:46:25;;;;;;;5.95;2.38;;;;;;;7.69;71.52;99595.34;10565055;28;20047;-77
2023/04/11 03:51:28;;;;;;;10.43;3.80;;;;;;;8.11;70.48;99591.94;10566933;28;20047;-77
2023/04/11 03:56:39;;;;;;;7.18;3.22;;;;;;;7.77;71.40;99605.41;10561752;28;20080;-78
2023/04/11 04:01:49;;;;;;;10.73;3.55;;;;;;;8.12;70.34;99607.03;10567893;28;20092;-78
2023/04/11 04:06:55;;;;;;;8.55;3.33;;;;;;;7.60;71.87;99603.28;10582316;28;20040;-79
2023/04/11 04:12:07;;;;;;;10.98;3.08;;;;;;;7.90;71.71;99613.31;10561526;28;20044;-78
2023/04/11 04:17:31;;;;;;;10.55;3.08;;;;;;;7.89;71.37;99611.59;10565711;28;20040;-77
2023/04/11 04:22:36;;;;;;;16.60;4.55;;;;;;;7.76;71.65;99617.06;10565729;28;20046;-78
2023/04/11 04:27:43;;;;;;;18.23;4.43;;;;;;;7.37;73.61;99624.66;10567417;28;20563;-77
2023/04/11 04:32:47;;;;;;;13.30;4.00;;;;;;;7.44;73.87;99622.38;10567620;28;20067;-77
2023/04/11 04:37:50;;;;;;;10.52;3.85;;;;;;;7.36;74.44;99635.50;10563325;28;20043;-77
2023/04/11 04:43:07;;;;;;;12.43;4.20;;;;;;;7.43;74.19;99624.19;10566639;28;20117;-78
2023/04/11 04:48:17;;;;;;;19.08;5.88;;;;;;;7.40;74.15;99620.91;10566737;28;20039;-78
2023/04/11 04:53:21;;;;;;;19.15;6.13;;;;;;;7.57;73.48;99627.56;10584643;28;20080;-78
2023/04/11 04:58:33;;;;;;;21.17;5.93;;;;;;;7.52;74.18;99624.44;10566920;28;20078;-78
2023/04/11 05:03:38;;;;;;;17.13;6.80;;;;;;;7.35;75.30;99631.97;10563457;28;20104;-78
2023/04/11 05:08:47;;;;;;;22.77;5.55;;;;;;;7.35;78.72;99633.78;10568737;28;20048;-78
2023/04/11 05:13:52;;;;;;;18.13;7.53;;;;;;;7.11;80.84;99639.25;10569394;28;20105;-78
2023/04/11 05:18:56;;;;;;;25.17;6.82;;;;;;;7.09;80.36;99636.69;10569829;28;20052;-78
2023/04/11 05:23:59;;;;;;;26.42;7.18;;;;;;;7.06;79.11;99639.59;10569271;28;20438;-79
2023/04/11 05:29:11;;;;;;;24.92;7.30;;;;;;;7.10;77.82;99632.19;10556141;28;20506;-79
2023/04/11 05:34:14;;;;;;;14.27;4.13;;;;;;;6.94;78.24;99644.09;10585622;28;20394;-79
2023/04/11 05:39:18;;;;;;;5.15;1.80;;;;;;;4.46;88.66;99704.53;10570674;28;20046;-79
2023/04/11 05:44:22;;;;;;;4.68;1.80;;;;;;;4.44;91.39;99696.66;10594518;28;20122;-82
2023/04/11 05:49:25;;;;;;;11.43;1.50;;;;;;;4.31;91.02;99717.06;10590512;28;20069;-79
2023/04/11 05:54:32;;;;;;;3.17;1.40;;;;;;;4.61;91.85;99712.34;10578076;28;20047;-80
2023/04/11 05:59:36;;;;;;;3.10;0.82;;;;;;;4.32;91.11;99708.94;10604153;28;20091;-80
2023/04/11 06:04:39;;;;;;;7.55;1.17;;;;;;;4.61;90.77;99708.84;10578198;28;20047;-80
2023/04/11 06:09:43;;;;;;;3.90;1.33;;;;;;;4.69;90.27;99717.16;10580112;28;20140;-80
2023/04/11 06:14:47;;;;;;;2.92;1.40;;;;;;;4.71;90.22;99709.91;10580725;28;20426;-81
2023/04/11 06:19:50;;;;;;;5.85;1.67;;;;;;;4.88;90.66;99718.56;10583797;28;20040;-81
2023/04/11 06:24:53;;;;;;;11.68;1.83;;;;;;;5.00;89.84;99734.59;10588261;28;20039;-80
2023/04/11 06:29:57;;;;;;;3.92;1.27;;;;;;;4.80;90.03;99733.25;10585485;28;20048;-80
2023/04/11 06:35:00;;;;;;;14.65;2.45;;;;;;;4.79;90.63;99749.31;10585114;28;20047;-79
2023/04/11 06:40:04;;;;;;;3.00;1.15;;;;;;;4.50;91.73;99746.78;10584026;28;20103;-79
2023/04/11 06:45:10;;;;;;;6.85;1.50;;;;;;;4.57;89.38;99749.88;10576118;28;20050;-79
2023/04/11 06:50:13;;;;;;;2.70;0.75;;;;;;;4.49;88.05;99745.06;10590206;28;20020;-80
2023/04/11 06:55:16;;;;;;;1.90;0.60;;;;;;;4.36;89.43;99761.00;10568252;28;20047;-81
2023/04/11 07:00:21;;;;;;;1.00;0.60;;;;;;;4.34;89.71;99775.34;10582139;28;20080;-81
2023/04/11 07:05:25;;;;;;;3.33;0.80;;;;;;;4.48;88.63;99763.81;10570820;28;20062;-79
2023/04/11 07:10:28;;;;;;;0.93;0.63;;;;;;;4.29;88.40;99770.31;10570442;28;20047;-79
2023/04/11 07:15:32;;;;;;;4.53;0.95;;;;;;;4.50;89.90;99784.03;10584154;28;20035;-77
2023/04/11 07:20:35;;;;;;;3.50;0.85;;;;;;;4.90;88.12;99788.50;10566599;28;20062;-78
2023/04/11 07:25:38;;;;;;;10.35;1.23;;;;;;;5.04;87.35;99785.81;10560757;28;20532;-78
2023/04/11 07:30:42;;;;;;;8.57;2.17;;;;;;;5.52;87.14;99791.41;10581039;28;20100;-78
2023/04/11 07:35:45;;;;;;;5.72;1.90;;;;;;;5.44;85.52;99804.41;10574810;28;20508;-78
2023/04/11 07:40:48;;;;;;;8.27;2.65;;;;;;;5.69;84.70;99792.88;10584349;28;20122;-77
2023/04/11 07:45:53;;;;;;;7.38;2.40;;;;;;;5.97;84.04;99820.25;10583894;28;20040;-77
2023/04/11 07:50:55;;;;;;;12.32;3.30;;;;;;;5.83;84.75;99822.09;10585072;28;20036;-79
2023/04/11 07:55:58;;;;;;;4.63;2.65;;;;;;;6.09;83.76;99822.91;10580606;28;20043;-79
2023/04/11 08:01:04;;;;;;;8.63;1.85;;;;;;;6.36;82.40;99832.53;10563498;28;20055;-79
2023/04/11 08:06:08;;;;;;;14.93;3.55;;;;;;;6.83;81.55;99839.75;10562619;28;20080;-77
2023/04/11 08:11:10;;;;;;;4.57;2.22;;;;;;;7.45;78.11;99835.16;10584979;28;20031;-78
2023/04/11 08:16:15;;;;;;;7.75;2.65;;;;;;;7.37;77.98;99840.25;10584952;28;20040;-80
2023/04/11 08:21:18;;;;;;;6.13;2.20;;;;;;;7.18;77.05;99846.13;10567999;28;20044;-79
2023/04/11 08:26:20;;;;;;;5.18;2.45;;;;;;;7.37;76.04;99859.78;10566636;28;20085;-80
2023/04/11 08:31:25;;;;;;;8.73;2.42;;;;;;;7.40;73.53;99846.19;10585752;28;20077;-79
2023/04/11 08:36:28;;;;;;;12.35;2.63;;;;;;;7.69;73.98;99851.97;10569822;28;20100;-80
2023/04/11 08:41:33;;;;;;;6.47;2.13;;;;;;;8.17;70.82;99854.47;10590911;28;20066;-80
2023/04/11 08:46:41;;;;;;;9.05;2.38;;;;;;;8.90;69.76;99854.84;10589160;28;20043;-81
2023/04/11 08:51:44;;;;;;;6.63;1.80;;;;;;;8.43;68.81;99864.91;10568928;28;20088;-80
2023/04/11 08:56:47;;;;;;;9.93;2.38;;;;;;;7.93;68.48;99851.06;10555456;28;20082;-80
2023/04/11 09:01:52;;;;;;;6.75;1.90;;;;;;;8.57;67.22;99843.25;10580711;28;20039;-81
2023/04/11 09:06:58;;;;;;;8.00;1.40;;;;;;;8.37;64.29;99868.94;10565429;28;20043;-80
2023/04/11 09:12:03;;;;;;;5.90;1.67;;;;;;;8.77;65.42;99860.34;10565581;28;20051;-79
2023/04/11 09:17:12;;;;;;;3.53;1.00;;;;;;;8.68;62.62;99854.91;10557643;28;20048;-79
2023/04/11 09:22:15;;;;;;;3.90;1.27;;;;;;;8.81;58.93;99855.63;10553694;28;20047;-78
2023/04/11 09:27:23;;;;;;;7.30;1.38;;;;;;;8.89;60.34;99850.50;10563280;28;20059;-78
2023/04/11 09:32:29;;;;;;;2.90;0.85;;;;;;;8.31;58.81;99887.28;10572394;28;20054;-79
2023/04/11 09:37:42;;;;;;;6.28;1.02;;;;;;;8.40;57.41;99884.72;10594905;28;20383;-77
2023/04/11 09:42:46;;;;;;;5.25;1.08;;;;;;;8.91;55.72;99890.53;10594337;28;20166;-79
2023/04/11 09:47:52;;;;;;;6.47;0.85;;;;;;;9.96;54.23;99879.97;10587021;28;20057;-78
2023/04/11 09:52:56;;;;;;;5.07;1.30;;;;;;;9.80;54.02;99867.00;10601860;28;20580;-77
2023/04/11 09:58:01;;;;;;;5.00;1.20;;;;;;;9.99;53.14;99877.03;10586702;28;20116;-77
2023/04/11 10:03:06;;;;;;;4.68;1.00;;;;;;;10.07;52.00;99872.69;10598903;28;20047;-78
2023/04/11 10:08:17;;;;;;;5.32;1.20;;;;;;;10.33;49.96;99885.66;10596169;28;20051;-81
2023/04/11 10:13:42;;;;;;;4.88;1.17;;;;;;;10.57;48.98;99880.78;10592038;28;20038;-78
2023/04/11 10:19:18;;;;;;;2.95;0.82;;;;;;;10.05;48.72;99869.28;10607116;22;20040;-79
2023/04/11 10:24:25;;;;;;;5.18;1.00;;;;;;;10.64;48.76;99893.66;10539105;28;20052;-80
2023/04/11 10:29:51;;;;;;;4.55;1.10;;;;;;;9.93;49.29;99868.50;10525935;28;20094;-80
2023/04/11 10:35:28;;;;;;;6.00;1.25;;;;;;;10.41;50.26;99871.56;10510520;28;20040;-80
2023/04/11 10:40:32;;;;;;;10.18;1.45;;;;;;;10.60;49.58;99869.78;10503629;28;20049;-79
2023/04/11 10:45:38;;;;;;;3.78;1.33;;;;;;;9.79;48.84;99884.94;10519720;28;20411;-79
2023/04/11 10:50:43;;;;;;;10.52;1.48;;;;;;;10.09;51.54;99889.50;10514487;28;20036;-79
2023/04/11 10:55:49;;;;;;;8.18;1.00;;;;;;;8.58;59.66;99917.25;10523232;28;20045;-81
2023/04/11 11:01:19;;;;;;;1.95;0.75;;;;;;;7.75;61.01;99911.31;10526548;28;20101;-79
2023/04/11 11:06:39;;;;;;;3.00;1.00;;;;;;;8.61;59.58;99905.41;10513332;28;20109;-80
2023/04/11 11:12:10;;;;;;;3.65;1.23;;;;;;;8.59;59.15;99923.47;10522286;28;20048;-79
2023/04/11 11:17:14;;;;;;;4.75;0.95;;;;;;;7.20;64.72;99921.66;10413045;28;20177;-81
2023/04/11 11:22:24;;;;;;;9.23;1.58;;;;;;;7.89;62.46;99917.28;10420076;28;20191;-79
2023/04/11 11:27:28;;;;;;;4.40;1.20;;;;;;;9.54;59.31;99912.09;10416754;28;20060;-80
2023/04/11 11:32:31;;;;;;;5.63;2.13;;;;;;;10.32;55.47;99913.50;10436906;28;20079;-80
2023/04/11 11:37:35;;;;;;;6.25;1.67;;;;;;;8.63;60.76;99938.28;10450547;28;20075;-79
2023/04/11 11:42:39;;;;;;;9.98;1.90;;;;;;;8.53;62.89;99930.16;10388638;28;20064;-79
2023/04/11 11:47:43;;;;;;;7.13;1.73;;;;;;;9.57;61.70;99930.59;10426512;28;20060;-79
2023/04/11 11:52:47;;;;;;;7.15;2.03;;;;;;;9.61;60.29;99916.81;10397757;28;20057;-79
2023/04/11 11:57:51;;;;;;;5.85;1.73;;;;;;;11.70;55.69;99909.09;10379255;28;20056;-80
2023/04/11 12:02:58;;;;;;;5.47;1.52;;;;;;;10.13;57.83;99933.88;10384009;28;20163;-80
2023/04/11 12:08:03;;;;;;;4.90;1.45;;;;;;;8.98;57.38;99953.34;10389969;28;20049;-79
2023/04/11 12:13:15;;;;;;;7.53;1.75;;;;;;;9.59;56.79;99925.97;10389367;28;20053;-79
2023/04/11 12:18:23;;;;;;;5.63;1.57;;;;;;;10.52;55.31;99917.09;10375248;28;20065;-79
2023/04/11 12:23:26;;;;;;;6.95;1.70;;;;;;;13.57;48.78;99922.47;10379955;28;20084;-79
2023/04/11 12:28:30;;;;;;;6.65;1.50;;;;;;;14.12;45.21;99906.88;10381213;28;20131;-79
2023/04/11 12:33:33;;;;;;;5.53;1.30;;;;;;;13.95;41.85;99899.66;10399181;28;20661;-81
2023/04/11 12:45:17;;;;;;;4.90;1.20;;;;;;;13.26;41.75;99929.03;10329713;28;20518;-79
2023/04/11 12:50:22;;;;;;;10.75;2.28;;;;;;;11.71;45.19;99940.38;10352248;28;20109;-79
2023/04/11 12:55:24;;;;;;;11.93;1.70;;;;;;;10.63;46.72;99940.31;10347496;28;20082;-78
2023/04/11 13:00:29;;;;;;;9.43;1.55;;;;;;;10.69;45.36;99943.31;10470428;23;20041;-77
2023/04/11 13:05:31;;;;;;;3.47;1.10;;;;;;;13.83;41.43;99934.16;10473863;28;22530;-80
2023/04/11 13:10:34;;;;;;;6.03;1.10;;;;;;;14.16;39.91;99935.25;10495993;28;20108;-76
2023/04/11 13:15:38;;;;;;;4.82;1.40;;;;;;;11.31;42.22;99943.22;10489981;28;20072;-81
2023/04/11 13:20:41;;;;;;;1.50;0.70;;;;;;;11.39;42.12;99944.22;10463469;28;20430;-78
2023/04/11 13:25:44;;;;;;;6.32;1.65;;;;;;;12.67;41.13;99925.03;10476697;28;20140;-78
2023/04/11 13:30:48;;;;;;;4.57;1.25;;;;;;;14.19;37.70;99947.59;10473122;28;20465;-78
2023/04/11 13:35:51;;;;;;;12.82;1.10;;;;;;;14.28;35.66;99954.72;10496910;28;20041;-80
2023/04/11 13:40:54;;;;;;;4.05;1.42;;;;;;;12.48;38.36;99952.00;10525339;28;20064;-76
2023/04/11 13:45:58;;;;;;;3.92;0.98;;;;;;;11.76;37.87;99938.09;10511724;28;20051;-76
2023/04/11 13:51:01;;;;;;;4.60;1.05;;;;;;;11.42;38.38;99970.81;10517472;28;20124;-80
2023/04/11 13:56:04;;;;;;;6.07;1.17;;;;;;;11.54;38.72;99970.69;10498004;28;20064;-80
2023/04/11 14:01:09;;;;;;;4.25;0.80;;;;;;;12.24;38.67;99964.13;10488528;28;20044;-80
2023/04/11 14:06:12;;;;;;;2.83;0.80;;;;;;;12.27;36.20;99958.44;10483076;28;20044;-80
2023/04/11 14:11:14;;;;;;;1.70;0.65;;;;;;;13.32;34.52;99986.94;10483703;28;20037;-79
2023/04/11 14:16:19;;;;;;;2.60;0.70;;;;;;;11.33;36.93;99979.72;10489686;28;20033;-80
2023/04/11 14:21:22;;;;;;;5.60;1.10;;;;;;;12.86;37.05;99960.94;10473964;28;20037;-80
2023/04/11 14:26:25;;;;;;;4.40;1.05;;;;;;;12.14;35.21;99974.91;10497716;28;20499;-77
2023/04/11 14:31:30;;;;;;;3.22;0.68;;;;;;;12.82;34.11;99974.72;10494602;28;20099;-80
2023/04/11 14:36:34;;;;;;;1.63;0.68;;;;;;;13.23;33.24;99963.56;10494876;28;20048;-79
2023/04/11 14:41:37;;;;;;;7.90;1.33;;;;;;;13.55;32.75;100003.59;10468955;28;20057;-80
2023/04/11 14:46:41;;;;;;;2.58;0.60;;;;;;;12.60;35.95;99993.97;10499563;28;20045;-79
2023/04/11 14:51:45;;;;;;;6.07;1.33;;;;;;;12.58;35.68;99991.41;10479948;28;20037;-79
2023/04/11 14:56:48;;;;;;;5.88;1.02;;;;;;;12.99;35.04;99989.25;10496591;28;20044;-78
2023/04/11 15:01:52;;;;;;;8.73;1.02;;;;;;;14.26;34.49;99997.28;10489724;28;20037;-80
2023/04/11 15:06:55;;;;;;;2.83;0.88;;;;;;;12.07;35.33;99997.19;10465901;28;20418;-80
2023/04/11 15:11:58;;;;;;;3.60;1.33;;;;;;;12.86;34.57;99993.28;10490972;28;20040;-78
2023/04/11 15:17:02;;;;;;;3.05;0.50;;;;;;;13.05;33.47;99994.06;10464505;28;20056;-80
2023/04/11 15:22:05;;;;;;;5.38;1.40;;;;;;;11.65;36.33;100024.34;10503190;28;20109;-78
2023/04/11 15:27:08;;;;;;;4.45;0.90;;;;;;;11.76;35.80;100010.75;10493742;28;20071;-77
2023/04/11 15:32:12;;;;;;;5.50;0.90;;;;;;;12.90;34.85;100006.31;10488549;28;20085;-77
2023/04/11 15:37:15;;;;;;;2.30;0.82;;;;;;;12.41;34.44;100002.94;10493158;28;20070;-77
2023/04/11 15:42:17;;;;;;;2.55;1.08;;;;;;;11.32;36.28;100017.50;10501614;28;20062;-77
2023/04/11 15:47:22;;;;;;;2.90;0.95;;;;;;;12.14;36.54;100023.34;10472352;28;20384;-77
2023/04/11 15:52:25;;;;;;;3.28;0.93;;;;;;;12.37;34.89;100004.25;10484541;28;20044;-77
2023/04/11 15:57:28;;;;;;;2.05;0.65;;;;;;;12.87;34.35;99995.00;10464435;28;20048;-77
2023/04/11 16:02:32;;;;;;;2.22;0.63;;;;;;;12.08;35.10;100001.56;10476607;28;20093;-78
2023/04/11 16:07:35;;;;;;;3.95;0.90;;;;;;;12.47;35.61;99991.56;10465582;28;20040;-79
2023/04/11 16:12:38;;;;;;;3.00;1.00;;;;;;;12.17;33.71;99993.44;10485849;28;20120;-76
2023/04/11 16:17:45;;;;;;;5.70;0.95;;;;;;;13.14;32.47;99991.47;10492827;28;20079;-77
2023/04/11 16:22:48;;;;;;;3.65;0.75;;;;;;;12.66;34.58;100014.06;10471071;28;20048;-77
2023/04/11 16:27:51;;;;;;;8.88;0.90;;;;;;;12.26;34.37;100007.03;10484060;28;20048;-77
2023/04/11 16:32:55;;;;;;;5.20;0.90;;;;;;;12.73;34.45;100002.56;10477614;28;20044;-79
2023/04/11 16:37:58;;;;;;;3.80;0.73;;;;;;;13.20;33.25;100015.13;10477864;28;20044;-77
2023/04/11 16:43:01;;;;;;;5.85;0.70;;;;;;;12.47;33.10;100002.34;10468826;28;20479;-76
2023/04/11 16:48:05;;;;;;;3.65;0.65;;;;;;;12.56;32.94;99995.22;10482137;28;20117;-77
2023/04/11 16:53:08;;;;;;;5.38;0.80;;;;;;;11.81;33.59;99999.59;10463490;28;20165;-78
2023/04/11 16:58:11;;;;;;;3.13;0.60;;;;;;;11.71;34.81;100000.44;10480253;28;20064;-76
2023/04/11 17:03:16;;;;;;;2.03;0.70;;;;;;;11.79;35.00;100007.78;10474869;28;20143;-79
2023/04/11 17:08:20;;;;;;;4.28;0.63;;;;;;;11.70;34.45;99995.19;10471779;28;20041;-77
2023/04/11 17:13:22;;;;;;;3.45;0.73;;;;;;;11.68;34.78;99998.03;10474872;28;20037;-78
2023/04/11 17:18:27;;;;;;;4.68;0.80;;;;;;;11.67;35.13;100004.38;10469496;28;20107;-76
2023/04/11 17:23:30;;;;;;;5.00;1.00;;;;;;;12.33;34.83;99983.97;10467974;28;20063;-77
2023/04/11 17:28:45;;;;;;;5.65;1.45;;;;;;;12.49;35.20;99994.13;10478906;28;20049;-78
2023/04/11 17:33:49;;;;;;;5.07;0.93;;;;;;;11.73;35.41;99997.59;10472855;28;20127;-77
2023/04/11 17:38:53;;;;;;;3.75;1.20;;;;;;;11.32;36.28;100006.75;10476344;28;20041;-77
2023/04/11 17:43:56;;;;;;;4.68;0.80;;;;;;;11.25;36.45;99995.72;10456766;28;20155;-77
2023/04/11 17:49:00;;;;;;;2.92;0.80;;;;;;;11.27;36.17;100002.66;10480917;28;20128;-77
2023/04/11 17:54:03;;;;;;;4.53;0.85;;;;;;;11.13;36.79;99997.63;10494714;28;20071;-78
2023/04/11 17:59:06;;;;;;;3.50;0.88;;;;;;;10.92;37.41;100002.22;10495702;28;20123;-77
2023/04/11 18:04:12;;;;;;;;;;;;;;;10.68;37.69;100006.09;10495678;28;20446;-78
2023/04/11 18:09:16;;;;;;;2.63;0.98;;;;;;;10.54;37.59;100001.06;10493603;28;20031;-76
2023/04/11 18:14:18;;;;;;;5.53;1.00;;;;;;;10.35;38.24;100008.03;10480256;28;20096;-77
2023/04/11 18:19:23;;;;;;;2.08;0.85;;;;;;;10.17;38.20;100017.66;10474373;28;20102;-77
2023/04/11 18:24:26;;;;;;;3.53;0.70;;;;;;;9.93;38.45;100018.75;10490863;28;20056;-78
2023/04/11 18:29:29;;;;;;;2.65;0.85;;;;;;;9.84;38.19;100024.00;10483519;28;20037;-77
2023/04/11 18:34:33;;;;;;;;;;;;;;;9.76;38.47;100021.94;10479427;28;20033;-76
2023/04/11 18:39:37;;;;;;;1.98;1.00;;;;;;;9.83;38.08;100022.31;10489872;28;19963;-78
2023/04/11 18:44:41;;;;;;;3.88;1.27;;;;;;;9.98;37.83;100025.56;10481139;28;20084;-77
2023/04/11 18:49:46;;;;;;;7.22;1.40;;;;;;;9.91;37.64;100026.06;10488617;28;20045;-78
2023/04/11 18:54:49;;;;;;;3.05;1.48;;;;;;;9.89;37.81;100028.03;10487131;28;20847;-78
2023/04/11 18:59:52;;;;;;;7.35;1.38;;;;;;;9.81;38.41;100029.63;10480094;28;20136;-77
2023/04/11 19:04:59;;;;;;;5.47;1.40;;;;;;;9.72;38.77;100026.72;10485656;28;20036;-77
2023/04/11 19:10:02;;;;;;;6.72;1.33;;;;;;;9.68;39.87;100029.78;10485751;28;20039;-77
2023/04/11 19:15:07;;;;;;;6.25;1.35;;;;;;;9.57;40.56;100019.09;10493104;22;20061;-80
2023/04/11 19:20:12;;;;;;;5.57;1.80;;;;;;;9.51;40.39;100018.63;10461026;28;20053;-80
2023/04/11 19:25:15;;;;;;;7.05;2.03;;;;;;;9.45;40.25;100018.28;10458806;28;20040;-81
2023/04/11 19:30:18;;;;;;;7.18;1.23;;;;;;;9.49;39.39;100023.28;10460977;28;20037;-81
2023/04/11 19:35:23;;;;;;;8.50;2.20;;;;;;;9.38;39.30;100011.72;10454582;28;20051;-82
2023/04/11 19:40:26;;;;;;;3.90;1.77;;;;;;;9.37;39.51;100001.97;10452521;28;20074;-82
2023/04/11 19:45:28;;;;;;;6.60;1.60;;;;;;;9.32;40.17;100004.19;10466166;28;20052;-80
2023/04/11 19:50:35;;;;;;;4.63;2.08;;;;;;;9.22;40.43;100002.25;10452661;28;20132;-80
2023/04/11 19:55:38;;;;;;;5.72;1.98;;;;;;;9.14;41.05;99995.81;10465468;28;20051;-80
2023/04/11 20:00:41;;;;;;;8.02;2.58;;;;;;;9.04;41.32;99983.16;10464755;28;20067;-80
2023/04/11 20:05:45;;;;;;;3.45;1.80;;;;;;;8.98;41.32;99966.75;10437250;28;20056;-80
2023/04/11 20:10:48;;;;;;;5.40;2.13;;;;;;;8.98;40.97;99967.59;10443220;28;20045;-81
2023/04/11 20:22:52;;;;;;;5.97;2.17;;;;;;;8.79;41.47;99949.47;10461737;28;20463;-78
2023/04/11 20:27:55;;;;;;;8.23;2.80;;;;;;;8.82;41.41;99948.38;10466373;28;20154;-80
2023/04/11 20:32:58;;;;;;;7.90;2.97;;;;;;;8.76;41.47;99956.91;10434792;22;20503;-75
2023/04/11 20:38:02;;;;;;;7.55;2.75;;;;;;;8.69;41.51;99950.34;10395263;28;20030;-76
2023/04/11 20:43:05;;;;;;;9.20;2.40;;;;;;;8.51;42.15;99955.34;10404449;28;20037;-76
2023/04/11 20:48:11;;;;;;;6.68;2.55;;;;;;;8.34;42.41;99945.94;10421557;28;20045;-76
2023/04/11 20:53:15;;;;;;;6.22;2.30;;;;;;;8.20;42.92;99949.69;10439730;28;20037;-75
2023/04/11 20:58:19;;;;;;;10.95;2.28;;;;;;;8.04;43.24;99936.66;10431991;28;20037;-76
2023/04/11 21:03:22;;;;;;;5.10;1.90;;;;;;;8.04;43.62;99938.47;10448488;28;20533;-75
2023/04/11 21:08:27;;;;;;;7.40;2.47;;;;;;;7.99;43.89;99925.47;10426171;28;20072;-77
2023/04/11 21:13:30;;;;;;;5.43;2.00;;;;;;;7.90;44.07;99923.50;10434892;28;20076;-75
2023/04/11 21:18:32;;;;;;;7.55;3.10;;;;;;;7.82;44.75;99923.25;10428800;28;20064;-76
2023/04/11 21:23:37;;;;;;;8.52;4.45;;;;;;;7.69;45.22;99908.13;10433541;28;20037;-76
2023/04/11 21:28:39;;;;;;;7.28;2.97;;;;;;;7.61;45.67;99904.34;10445812;28;20048;-77
2023/04/11 21:33:45;;;;;;;7.53;3.03;;;;;;;7.58;45.87;99899.22;10444537;28;20557;-77
2023/04/11 21:38:49;;;;;;;7.20;3.15;;;;;;;7.53;46.31;99890.69;10451201;28;20037;-76
2023/04/11 21:43:52;;;;;;;7.15;3.50;;;;;;;7.45;46.55;99892.13;10445933;28;20034;-77
2023/04/11 21:48:55;;;;;;;12.75;3.10;;;;;;;7.42;47.08;99892.38;10440704;28;20128;-75
2023/04/11 21:53:59;;;;;;;6.97;3.03;;;;;;;7.32;47.85;99880.66;10441693;28;20487;-77
2023/04/11 21:59:02;;;;;;;6.50;3.30;;;;;;;7.11;48.65;99877.81;10425670;28;20045;-77
2023/04/11 22:04:04;;;;;;;9.10;3.38;;;;;;;7.06;49.36;99870.13;10445017;28;20037;-75
2023/04/11 22:09:09;;;;;;;11.32;3.63;;;;;;;7.01;49.74;99872.28;10450850;28;20063;-77
2023/04/11 22:14:15;;;;;;;7.07;4.13;;;;;;;7.03;49.86;99856.16;10435948;28;20042;-77
2023/04/11 22:19:18;;;;;;;8.13;4.50;;;;;;;7.00;50.14;99848.38;10419667;28;20037;-78
2023/04/11 22:24:29;;;;;;;7.72;4.13;;;;;;;6.91;50.42;99854.38;10421004;28;20048;-76
2023/04/11 22:29:33;;;;;;;10.20;4.22;;;;;;;6.91;50.65;99846.38;10439175;28;20045;-75
2023/04/11 22:34:36;;;;;;;8.50;3.35;;;;;;;6.83;50.90;99833.59;10433835;28;20079;-76
2023/04/11 22:39:40;;;;;;;10.43;3.33;;;;;;;6.87;51.04;99831.53;10452576;28;20042;-75
2023/04/11 22:44:43;;;;;;;6.32;3.25;;;;;;;6.88;50.92;99818.06;10418698;28;20124;-76
2023/04/11 22:49:45;;;;;;;5.97;3.03;;;;;;;6.79;51.14;99816.91;10419155;28;20084;-76
2023/04/11 22:54:49;;;;;;;5.72;2.40;;;;;;;6.68;51.37;99798.19;10424014;28;20116;-76
2023/04/11 22:59:52;;;;;;;7.18;2.67;;;;;;;6.77;51.55;99808.16;10430052;28;20056;-76
2023/04/11 23:04:55;;;;;;;4.88;2.88;;;;;;;6.70;51.75;99803.41;10426428;28;20412;-76
2023/04/11 23:10:03;;;;;;;4.35;2.53;;;;;;;6.62;51.88;99790.63;10434687;28;20044;-77
2023/04/11 23:15:07;;;;;;;7.00;2.80;;;;;;;6.59;52.24;99786.38;10447883;28;20037;-77
2023/04/11 23:20:12;;;;;;;5.55;2.38;;;;;;;6.43;52.74;99783.13;10413871;28;20120;-76
2023/04/11 23:25:17;;;;;;;5.22;2.50;;;;;;;6.49;52.77;99776.50;10432486;28;20045;-77
2023/04/11 23:30:19;;;;;;;8.02;2.72;;;;;;;6.50;52.94;99767.50;10419119;28;20068;-75
2023/04/11 23:35:22;;;;;;;9.77;2.95;;;;;;;6.54;53.00;99748.50;10439455;28;20033;-76
2023/04/11 23:40:28;;;;;;;9.80;2.55;;;;;;;6.55;53.34;99750.19;10436714;28;20419;-77
2023/04/11 23:45:32;;;;;;;9.82;2.67;;;;;;;6.58;53.40;99733.97;10424261;28;20046;-76
2023/04/11 23:50:35;;;;;;;8.30;2.83;;;;;;;6.57;53.89;99726.91;10412412;28;20053;-76
2023/04/11 23:55:40;;;;;;;7.88;3.63;;;;;;;6.44;54.58;99695.94;10450868;28;20044;-75
